sensor_id;sensor_type;location;lat;lon;timestamp;pressure;altitude;pressure_sealevel;temperature;humidity
2675;BME280;1347;42.122;24.746;2024-02-23T00:01:55;99461.03;;;5.94;100.00
2675;BME280;1347;42.122;24.746;2024-02-23T00:04:21;99453.94;;;5.89;100.00
2675;BME280;1347;42.122;24.746;2024-02-23T00:06:48;99464.31;;;5.87;100.00
2675;BME280;1347;42.122;24.746;2024-02-23T00:09:15;99465.31;;;5.82;100.00
2675;BME280;1347;42.122;24.746;2024-02-23T00:11:42;99467.47;;;5.77;100.00
2675;BME280;1347;42.122;24.746;2024-02-23T00:14:10;99463.50;;;5.74;100.00
2675;BME280;1347;42.122;24.746;2024-02-23T00:16:39;99464.28;;;5.75;100.00
2675;BME280;1347;42.122;24.746;2024-02-23T00:19:07;99467.81;;;5.75;100.00
2675;BME280;1347;42.122;24.746;2024-02-23T00:21:35;99459.63;;;5.63;100.00
2675;BME280;1347;42.122;24.746;2024-02-23T00:24:02;99460.66;;;5.71;100.00
2675;BME280;1347;42.122;24.746;2024-02-23T00:26:29;99457.47;;;5.57;100.00
2675;BME280;1347;42.122;24.746;2024-02-23T00:28:56;99451.59;;;5.54;100.00
2675;BME280;1347;42.122;24.746;2024-02-23T00:31:22;99449.66;;;5.55;100.00
2675;BME280;1347;42.122;24.746;2024-02-23T00:33:51;99451.00;;;5.61;100.00
2675;BME280;1347;42.122;24.746;2024-02-23T00:36:18;99448.75;;;5.63;100.00
2675;BME280;1347;42.122;24.746;2024-02-23T00:38:45;99437.66;;;5.68;100.00
2675;BME280;1347;42.122;24.746;2024-02-23T00:41:11;99432.22;;;5.68;100.00
2675;BME280;1347;42.122;24.746;2024-02-23T00:43:38;99433.69;;;5.66;100.00
2675;BME280;1347;42.122;24.746;2024-02-23T00:46:06;99433.47;;;5.71;100.00
2675;BME280;1347;42.122;24.746;2024-02-23T00:48:33;99445.56;;;5.61;100.00
2675;BME280;1347;42.122;24.746;2024-02-23T00:51:02;99432.88;;;5.53;100.00
2675;BME280;1347;42.122;24.746;2024-02-23T00:53:30;99441.16;;;5.57;100.00
2675;BME280;1347;42.122;24.746;2024-02-23T00:55:57;99438.44;;;5.57;100.00
2675;BME280;1347;42.122;24.746;2024-02-23T00:58:24;99432.22;;;5.56;100.00
2675;BME280;1347;42.122;24.746;2024-02-23T01:00:51;99426.91;;;5.60;100.00
2675;BME280;1347;42.122;24.746;2024-02-23T01:03:18;99425.75;;;5.61;100.00
2675;BME280;1347;42.122;24.746;2024-02-23T01:05:45;99420.66;;;5.59;100.00
2675;BME280;1347;42.122;24.746;2024-02-23T01:08:13;99431.78;;;5.66;100.00
2675;BME280;1347;42.122;24.746;2024-02-23T01:10:40;99422.16;;;5.69;100.00
2675;BME280;1347;42.122;24.746;2024-02-23T01:13:07;99423.63;;;5.66;100.00
2675;BME280;1347;42.122;24.746;2024-02-23T01:15:33;99416.91;;;5.64;100.00
2675;BME280;1347;42.122;24.746;2024-02-23T01:18:00;99411.28;;;5.69;100.00
2675;BME280;1347;42.122;24.746;2024-02-23T01:20:28;99415.22;;;5.71;100.00
2675;BME280;1347;42.122;24.746;2024-02-23T01:22:54;99405.25;;;5.75;100.00
2675;BME280;1347;42.122;24.746;2024-02-23T01:25:23;99404.94;;;5.77;100.00
2675;BME280;1347;42.122;24.746;2024-02-23T01:27:49;99409.56;;;5.76;100.00
2675;BME280;1347;42.122;24.746;2024-02-23T01:30:16;99403.88;;;5.81;100.00
2675;BME280;1347;42.122;24.746;2024-02-23T01:32:44;99409.31;;;5.81;100.00
2675;BME280;1347;42.122;24.746;2024-02-23T01:35:11;99402.41;;;5.84;100.00
2675;BME280;1347;42.122;24.746;2024-02-23T01:37:38;99400.50;;;5.84;100.00
2675;BME280;1347;42.122;24.746;2024-02-23T01:40:06;99402.41;;;5.84;100.00
2675;BME280;1347;42.122;24.746;2024-02-23T01:42:34;99401.75;;;5.87;100.00
2675;BME280;1347;42.122;24.746;2024-02-23T01:45:01;99409.00;;;5.83;100.00
2675;BME280;1347;42.122;24.746;2024-02-23T01:47:29;99405.72;;;5.77;100.00
2675;BME280;1347;42.122;24.746;2024-02-23T01:49:57;99400.97;;;5.86;100.00
2675;BME280;1347;42.122;24.746;2024-02-23T01:52:25;99394.28;;;5.60;100.00
2675;BME280;1347;42.122;24.746;2024-02-23T01:54:52;99393.38;;;5.68;100.00
2675;BME280;1347;42.122;24.746;2024-02-23T01:57:21;99396.53;;;5.70;100.00
2675;BME280;1347;42.122;24.746;2024-02-23T01:59:51;99395.16;;;5.51;100.00
2675;BME280;1347;42.122;24.746;2024-02-23T02:02:18;99378.31;;;5.58;100.00
2675;BME280;1347;42.122;24.746;2024-02-23T02:04:45;99384.88;;;5.57;100.00
2675;BME280;1347;42.122;24.746;2024-02-23T02:07:12;99381.22;;;5.53;100.00
2675;BME280;1347;42.122;24.746;2024-02-23T02:09:39;99386.22;;;5.51;100.00
2675;BME280;1347;42.122;24.746;2024-02-23T02:12:06;99386.22;;;5.51;100.00
2675;BME280;1347;42.122;24.746;2024-02-23T02:14:33;99389.81;;;5.43;100.00
2675;BME280;1347;42.122;24.746;2024-02-23T02:17:03;99394.13;;;5.32;100.00
2675;BME280;1347;42.122;24.746;2024-02-23T02:19:31;99392.06;;;5.16;100.00
2675;BME280;1347;42.122;24.746;2024-02-23T02:21:58;99383.78;;;5.13;100.00
2675;BME280;1347;42.122;24.746;2024-02-23T02:24:27;99385.34;;;5.02;100.00
2675;BME280;1347;42.122;24.746;2024-02-23T02:26:54;99390.31;;;5.00;100.00
2675;BME280;1347;42.122;24.746;2024-02-23T02:29:21;99380.38;;;5.04;100.00
2675;BME280;1347;42.122;24.746;2024-02-23T02:31:48;99378.63;;;4.99;100.00
2675;BME280;1347;42.122;24.746;2024-02-23T02:34:16;99387.59;;;5.00;100.00
2675;BME280;1347;42.122;24.746;2024-02-23T02:36:43;99375.94;;;4.99;100.00
2675;BME280;1347;42.122;24.746;2024-02-23T02:39:09;99384.53;;;5.01;100.00
2675;BME280;1347;42.122;24.746;2024-02-23T02:41:36;99380.03;;;5.05;100.00
2675;BME280;1347;42.122;24.746;2024-02-23T02:44:03;99387.16;;;5.10;100.00
2675;BME280;1347;42.122;24.746;2024-02-23T02:46:30;99384.81;;;5.08;100.00
2675;BME280;1347;42.122;24.746;2024-02-23T02:48:57;99380.38;;;5.04;100.00
2675;BME280;1347;42.122;24.746;2024-02-23T02:51:25;99390.09;;;5.05;100.00
2675;BME280;1347;42.122;24.746;2024-02-23T02:53:52;99397.03;;;5.14;100.00
2675;BME280;1347;42.122;24.746;2024-02-23T02:56:19;99392.84;;;5.17;100.00
2675;BME280;1347;42.122;24.746;2024-02-23T02:58:45;99385.03;;;5.15;100.00
2675;BME280;1347;42.122;24.746;2024-02-23T03:01:12;99395.00;;;5.24;100.00
2675;BME280;1347;42.122;24.746;2024-02-23T03:03:39;99394.53;;;5.22;100.00
2675;BME280;1347;42.122;24.746;2024-02-23T03:06:06;99403.28;;;5.27;100.00
2675;BME280;1347;42.122;24.746;2024-02-23T03:08:34;99399.22;;;5.33;100.00
2675;BME280;1347;42.122;24.746;2024-02-23T03:11:01;99396.50;;;5.33;100.00
2675;BME280;1347;42.122;24.746;2024-02-23T03:13:28;99394.81;;;5.29;100.00
2675;BME280;1347;42.122;24.746;2024-02-23T03:15:57;99392.88;;;5.29;100.00
2675;BME280;1347;42.122;24.746;2024-02-23T03:18:23;99394.56;;;5.34;100.00
2675;BME280;1347;42.122;24.746;2024-02-23T03:20:53;99404.97;;;5.32;100.00
2675;BME280;1347;42.122;24.746;2024-02-23T03:23:20;99407.50;;;5.37;100.00
2675;BME280;1347;42.122;24.746;2024-02-23T03:25:48;99409.75;;;5.35;100.00
2675;BME280;1347;42.122;24.746;2024-02-23T03:28:15;99410.19;;;5.25;100.00
2675;BME280;1347;42.122;24.746;2024-02-23T03:30:42;99406.81;;;5.28;100.00
2675;BME280;1347;42.122;24.746;2024-02-23T03:33:09;99412.09;;;5.24;100.00
2675;BME280;1347;42.122;24.746;2024-02-23T03:35:36;99411.22;;;5.32;100.00
2675;BME280;1347;42.122;24.746;2024-02-23T03:38:03;99404.53;;;5.30;100.00
2675;BME280;1347;42.122;24.746;2024-02-23T03:40:29;99407.13;;;5.26;100.00
2675;BME280;1347;42.122;24.746;2024-02-23T03:42:58;99404.09;;;5.28;99.90
2675;BME280;1347;42.122;24.746;2024-02-23T03:45:25;99401.69;;;5.26;99.73
2675;BME280;1347;42.122;24.746;2024-02-23T03:47:51;99407.47;;;5.25;100.00
2675;BME280;1347;42.122;24.746;2024-02-23T03:50:18;99405.31;;;5.18;100.00
2675;BME280;1347;42.122;24.746;2024-02-23T03:52:45;99412.78;;;5.21;100.00
2675;BME280;1347;42.122;24.746;2024-02-23T03:55:12;99413.00;;;5.16;100.00
2675;BME280;1347;42.122;24.746;2024-02-23T03:57:39;99418.31;;;5.12;98.80
2675;BME280;1347;42.122;24.746;2024-02-23T04:00:08;99405.81;;;4.99;98.67
2675;BME280;1347;42.122;24.746;2024-02-23T04:02:35;99416.00;;;4.69;99.11
2675;BME280;1347;42.122;24.746;2024-02-23T04:05:03;99405.75;;;4.54;99.99
2675;BME280;1347;42.122;24.746;2024-02-23T04:07:30;99410.31;;;4.41;100.00
2675;BME280;1347;42.122;24.746;2024-02-23T04:09:57;99408.94;;;4.35;100.00
2675;BME280;1347;42.122;24.746;2024-02-23T04:12:23;99413.91;;;4.33;100.00
2675;BME280;1347;42.122;24.746;2024-02-23T04:14:50;99414.34;;;4.15;100.00
2675;BME280;1347;42.122;24.746;2024-02-23T04:17:20;99410.09;;;4.05;100.00
2675;BME280;1347;42.122;24.746;2024-02-23T04:19:47;99406.91;;;4.03;100.00
2675;BME280;1347;42.122;24.746;2024-02-23T04:22:13;99398.94;;;4.06;100.00
2675;BME280;1347;42.122;24.746;2024-02-23T04:24:41;99408.41;;;3.92;100.00
2675;BME280;1347;42.122;24.746;2024-02-23T04:27:08;99407.63;;;3.91;100.00
2675;BME280;1347;42.122;24.746;2024-02-23T04:29:35;99418.78;;;3.90;100.00
2675;BME280;1347;42.122;24.746;2024-02-23T04:32:02;99419.91;;;3.89;100.00
2675;BME280;1347;42.122;24.746;2024-02-23T04:34:31;99418.19;;;3.84;100.00
2675;BME280;1347;42.122;24.746;2024-02-23T04:36:58;99411.50;;;3.82;100.00
2675;BME280;1347;42.122;24.746;2024-02-23T04:39:24;99407.53;;;3.79;100.00
2675;BME280;1347;42.122;24.746;2024-02-23T04:41:51;99409.59;;;3.82;100.00
2675;BME280;1347;42.122;24.746;2024-02-23T04:44:19;99407.16;;;3.89;100.00
2675;BME280;1347;42.122;24.746;2024-02-23T04:46:46;99410.97;;;3.88;100.00
2675;BME280;1347;42.122;24.746;2024-02-23T04:49:12;99407.44;;;3.96;100.00
2675;BME280;1347;42.122;24.746;2024-02-23T04:51:41;99420.66;;;3.98;100.00
2675;BME280;1347;42.122;24.746;2024-02-23T04:54:08;99412.34;;;4.03;100.00
2675;BME280;1347;42.122;24.746;2024-02-23T04:56:35;99399.84;;;4.11;100.00
2675;BME280;1347;42.122;24.746;2024-02-23T04:59:01;99399.19;;;4.14;100.00
2675;BME280;1347;42.122;24.746;2024-02-23T05:01:28;99402.22;;;4.12;100.00
2675;BME280;1347;42.122;24.746;2024-02-23T05:03:55;99413.53;;;4.14;100.00
2675;BME280;1347;42.122;24.746;2024-02-23T05:06:22;99418.16;;;3.93;100.00
2675;BME280;1347;42.122;24.746;2024-02-23T05:08:50;99419.09;;;3.97;100.00
2675;BME280;1347;42.122;24.746;2024-02-23T05:11:17;99419.34;;;4.04;100.00
2675;BME280;1347;42.122;24.746;2024-02-23T05:13:44;99409.72;;;4.15;100.00
2675;BME280;1347;42.122;24.746;2024-02-23T05:16:11;99419.09;;;4.18;100.00
2675;BME280;1347;42.122;24.746;2024-02-23T05:18:39;99426.47;;;4.17;100.00
2675;BME280;1347;42.122;24.746;2024-02-23T05:21:06;99430.63;;;4.15;100.00
2675;BME280;1347;42.122;24.746;2024-02-23T05:23:33;99430.22;;;4.04;100.00
2675;BME280;1347;42.122;24.746;2024-02-23T05:26:02;99434.63;;;4.08;100.00
2675;BME280;1347;42.122;24.746;2024-02-23T05:28:29;99439.63;;;4.06;100.00
2675;BME280;1347;42.122;24.746;2024-02-23T05:30:55;99438.56;;;4.20;100.00
2675;BME280;1347;42.122;24.746;2024-02-23T05:33:23;99436.63;;;4.20;100.00
2675;BME280;1347;42.122;24.746;2024-02-23T05:35:50;99440.03;;;4.17;100.00
2675;BME280;1347;42.122;24.746;2024-02-23T05:38:17;99439.75;;;4.31;100.00
2675;BME280;1347;42.122;24.746;2024-02-23T05:40:44;99436.88;;;4.36;100.00
2675;BME280;1347;42.122;24.746;2024-02-23T05:43:13;99432.63;;;4.47;100.00
2675;BME280;1347;42.122;24.746;2024-02-23T05:45:39;99434.81;;;4.54;100.00
2675;BME280;1347;42.122;24.746;2024-02-23T05:48:07;99444.53;;;4.55;100.00
2675;BME280;1347;42.122;24.746;2024-02-23T05:50:34;99438.00;;;4.56;100.00
2675;BME280;1347;42.122;24.746;2024-02-23T05:53:01;99451.50;;;4.64;100.00
2675;BME280;1347;42.122;24.746;2024-02-23T05:55:30;99455.91;;;4.69;100.00
2675;BME280;1347;42.122;24.746;2024-02-23T05:57:56;99446.47;;;4.75;100.00
2675;BME280;1347;42.122;24.746;2024-02-23T06:00:25;99451.94;;;4.87;100.00
2675;BME280;1347;42.122;24.746;2024-02-23T06:02:52;99457.72;;;4.86;100.00
2675;BME280;1347;42.122;24.746;2024-02-23T06:05:18;99468.22;;;5.08;100.00
2675;BME280;1347;42.122;24.746;2024-02-23T06:07:45;99459.47;;;5.35;100.00
2675;BME280;1347;42.122;24.746;2024-02-23T06:10:12;99470.50;;;5.63;100.00
2675;BME280;1347;42.122;24.746;2024-02-23T06:12:39;99473.94;;;5.84;100.00
2675;BME280;1347;42.122;24.746;2024-02-23T06:15:07;99482.38;;;6.16;99.69
2675;BME280;1347;42.122;24.746;2024-02-23T06:17:35;99495.84;;;6.49;98.33
2675;BME280;1347;42.122;24.746;2024-02-23T06:20:06;99490.66;;;6.84;96.05
2675;BME280;1347;42.122;24.746;2024-02-23T06:22:33;99503.38;;;7.20;93.89
2675;BME280;1347;42.122;24.746;2024-02-23T06:25:00;99498.94;;;7.43;91.10
2675;BME280;1347;42.122;24.746;2024-02-23T06:27:27;99510.09;;;7.82;89.14
2675;BME280;1347;42.122;24.746;2024-02-23T06:29:54;99505.19;;;8.03;87.07
2675;BME280;1347;42.122;24.746;2024-02-23T06:32:21;99515.09;;;8.27;85.77
2675;BME280;1347;42.122;24.746;2024-02-23T06:34:49;99510.00;;;8.41;83.63
2675;BME280;1347;42.122;24.746;2024-02-23T06:37:16;99510.28;;;8.71;83.43
2675;BME280;1347;42.122;24.746;2024-02-23T06:39:43;99512.63;;;9.07;81.65
2675;BME280;1347;42.122;24.746;2024-02-23T06:42:11;99513.84;;;9.29;79.29
2675;BME280;1347;42.122;24.746;2024-02-23T06:44:38;99508.59;;;9.40;78.25
2675;BME280;1347;42.122;24.746;2024-02-23T06:47:05;99506.59;;;9.17;77.88
2675;BME280;1347;42.122;24.746;2024-02-23T06:49:32;99503.22;;;9.05;78.52
2675;BME280;1347;42.122;24.746;2024-02-23T06:52:00;99510.75;;;8.92;79.18
2675;BME280;1347;42.122;24.746;2024-02-23T06:54:27;99499.94;;;8.80;79.25
2675;BME280;1347;42.122;24.746;2024-02-23T06:56:54;99506.06;;;8.73;79.89
2675;BME280;1347;42.122;24.746;2024-02-23T06:59:21;99501.00;;;8.75;80.65
2675;BME280;1347;42.122;24.746;2024-02-23T07:01:50;99504.47;;;8.72;81.09
2675;BME280;1347;42.122;24.746;2024-02-23T07:04:17;99502.25;;;8.78;81.16
2675;BME280;1347;42.122;24.746;2024-02-23T07:06:44;99498.81;;;9.00;80.60
2675;BME280;1347;42.122;24.746;2024-02-23T07:09:13;99497.97;;;9.77;77.82
2675;BME280;1347;42.122;24.746;2024-02-23T07:11:40;99499.19;;;10.81;75.11
2675;BME280;1347;42.122;24.746;2024-02-23T07:14:09;99511.59;;;12.05;69.77
2675;BME280;1347;42.122;24.746;2024-02-23T07:16:37;99522.56;;;13.15;65.80
2675;BME280;1347;42.122;24.746;2024-02-23T07:19:05;99522.41;;;13.80;62.23
2675;BME280;1347;42.122;24.746;2024-02-23T07:21:32;99513.38;;;14.58;61.00
2675;BME280;1347;42.122;24.746;2024-02-23T07:23:59;99514.00;;;15.26;57.46
2675;BME280;1347;42.122;24.746;2024-02-23T07:26:27;99503.66;;;16.10;54.76
2675;BME280;1347;42.122;24.746;2024-02-23T07:28:54;99503.19;;;16.67;52.57
2675;BME280;1347;42.122;24.746;2024-02-23T07:31:22;99497.00;;;17.23;51.33
2675;BME280;1347;42.122;24.746;2024-02-23T07:33:48;99509.19;;;17.90;49.54
2675;BME280;1347;42.122;24.746;2024-02-23T07:36:16;99503.94;;;18.46;47.41
2675;BME280;1347;42.122;24.746;2024-02-23T07:38:44;99503.38;;;18.78;46.40
2675;BME280;1347;42.122;24.746;2024-02-23T07:41:11;99490.88;;;19.29;45.20
2675;BME280;1347;42.122;24.746;2024-02-23T07:43:40;99488.41;;;19.87;44.15
2675;BME280;1347;42.122;24.746;2024-02-23T07:46:07;99500.63;;;20.42;42.68
2675;BME280;1347;42.122;24.746;2024-02-23T07:48:34;99494.22;;;20.45;41.45
2675;BME280;1347;42.122;24.746;2024-02-23T07:51:02;99502.19;;;20.88;41.30
2675;BME280;1347;42.122;24.746;2024-02-23T07:53:29;99492.94;;;20.62;41.34
2675;BME280;1347;42.122;24.746;2024-02-23T07:55:56;99497.16;;;21.41;40.43
2675;BME280;1347;42.122;24.746;2024-02-23T07:58:24;99494.75;;;21.93;39.06
2675;BME280;1347;42.122;24.746;2024-02-23T08:00:53;99498.09;;;22.39;39.00
2675;BME280;1347;42.122;24.746;2024-02-23T08:03:20;99493.22;;;22.99;38.43
2675;BME280;1347;42.122;24.746;2024-02-23T08:05:47;99499.50;;;23.56;36.95
2675;BME280;1347;42.122;24.746;2024-02-23T08:08:14;99496.53;;;23.81;36.64
2675;BME280;1347;42.122;24.746;2024-02-23T08:10:41;99498.41;;;23.84;35.94
2675;BME280;1347;42.122;24.746;2024-02-23T08:13:07;99493.03;;;24.08;36.10
2675;BME280;1347;42.122;24.746;2024-02-23T08:15:36;99490.84;;;24.03;36.14
2675;BME280;1347;42.122;24.746;2024-02-23T08:18:04;99489.16;;;24.06;36.11
2675;BME280;1347;42.122;24.746;2024-02-23T08:20:31;99488.63;;;24.38;35.58
2675;BME280;1347;42.122;24.746;2024-02-23T08:22:58;99498.97;;;24.78;34.90
2675;BME280;1347;42.122;24.746;2024-02-23T08:25:25;99489.50;;;24.93;34.22
2675;BME280;1347;42.122;24.746;2024-02-23T08:27:54;99491.03;;;24.94;34.50
2675;BME280;1347;42.122;24.746;2024-02-23T08:30:22;99490.63;;;25.75;34.11
2675;BME280;1347;42.122;24.746;2024-02-23T08:32:49;99495.78;;;26.81;33.11
2675;BME280;1347;42.122;24.746;2024-02-23T08:35:18;99491.94;;;27.46;32.49
2675;BME280;1347;42.122;24.746;2024-02-23T08:37:45;99497.28;;;27.73;31.89
2675;BME280;1347;42.122;24.746;2024-02-23T08:40:12;99495.34;;;28.14;30.48
2675;BME280;1347;42.122;24.746;2024-02-23T08:42:39;99499.00;;;28.35;30.47
2675;BME280;1347;42.122;24.746;2024-02-23T08:45:06;99489.56;;;28.38;30.42
2675;BME280;1347;42.122;24.746;2024-02-23T08:47:35;99489.66;;;27.21;31.48
2675;BME280;1347;42.122;24.746;2024-02-23T08:50:03;99484.25;;;27.32;31.34
2675;BME280;1347;42.122;24.746;2024-02-23T08:52:31;99476.28;;;28.09;30.60
2675;BME280;1347;42.122;24.746;2024-02-23T08:54:58;99488.91;;;28.29;30.02
2675;BME280;1347;42.122;24.746;2024-02-23T08:57:27;99483.00;;;28.47;30.74
2675;BME280;1347;42.122;24.746;2024-02-23T08:59:54;99492.00;;;27.52;30.63
2675;BME280;1347;42.122;24.746;2024-02-23T09:02:22;99488.97;;;27.11;32.08
2675;BME280;1347;42.122;24.746;2024-02-23T09:04:49;99477.06;;;27.60;30.92
2675;BME280;1347;42.122;24.746;2024-02-23T09:07:16;99490.03;;;26.99;31.56
2675;BME280;1347;42.122;24.746;2024-02-23T09:09:46;99472.31;;;27.66;31.32
2675;BME280;1347;42.122;24.746;2024-02-23T09:12:14;99473.66;;;27.71;31.34
2675;BME280;1347;42.122;24.746;2024-02-23T09:14:41;99473.19;;;28.22;30.65
2675;BME280;1347;42.122;24.746;2024-02-23T09:17:08;99464.47;;;28.05;30.78
2675;BME280;1347;42.122;24.746;2024-02-23T09:19:36;99471.28;;;28.34;30.88
2675;BME280;1347;42.122;24.746;2024-02-23T09:22:03;99454.22;;;28.63;29.84
2675;BME280;1347;42.122;24.746;2024-02-23T09:24:30;99461.22;;;28.27;30.68
2675;BME280;1347;42.122;24.746;2024-02-23T09:27:02;99456.25;;;26.99;31.10
2675;BME280;1347;42.122;24.746;2024-02-23T09:29:29;99455.47;;;25.79;32.93
2675;BME280;1347;42.122;24.746;2024-02-23T09:31:56;99460.69;;;25.62;32.74
2675;BME280;1347;42.122;24.746;2024-02-23T09:34:24;99448.41;;;25.93;32.93
2675;BME280;1347;42.122;24.746;2024-02-23T09:36:51;99441.16;;;26.72;31.73
2675;BME280;1347;42.122;24.746;2024-02-23T09:39:18;99441.06;;;27.64;31.72
2675;BME280;1347;42.122;24.746;2024-02-23T09:41:50;99436.84;;;27.74;31.24
2675;BME280;1347;42.122;24.746;2024-02-23T09:44:18;99430.44;;;28.09;30.41
2675;BME280;1347;42.122;24.746;2024-02-23T09:46:48;99435.19;;;27.82;31.03
2675;BME280;1347;42.122;24.746;2024-02-23T09:49:15;99430.06;;;27.52;31.00
2675;BME280;1347;42.122;24.746;2024-02-23T09:51:43;99428.31;;;26.09;31.91
2675;BME280;1347;42.122;24.746;2024-02-23T09:54:10;99420.84;;;25.31;32.88
2675;BME280;1347;42.122;24.746;2024-02-23T09:56:37;99418.22;;;25.18;34.25
2675;BME280;1347;42.122;24.746;2024-02-23T09:59:05;99413.09;;;25.68;34.16
2675;BME280;1347;42.122;24.746;2024-02-23T10:01:33;99403.16;;;25.49;33.92
2675;BME280;1347;42.122;24.746;2024-02-23T10:04:02;99399.66;;;23.93;36.13
2675;BME280;1347;42.122;24.746;2024-02-23T10:06:30;99404.44;;;23.83;35.86
2675;BME280;1347;42.122;24.746;2024-02-23T10:08:57;99392.25;;;22.41;37.98
2675;BME280;1347;42.122;24.746;2024-02-23T10:11:24;99393.44;;;22.53;38.09
2675;BME280;1347;42.122;24.746;2024-02-23T10:13:52;99395.25;;;22.12;38.43
2675;BME280;1347;42.122;24.746;2024-02-23T10:16:19;99390.41;;;21.53;39.58
2675;BME280;1347;42.122;24.746;2024-02-23T10:18:48;99387.09;;;21.04;40.56
2675;BME280;1347;42.122;24.746;2024-02-23T10:21:15;99379.56;;;21.17;40.83
2675;BME280;1347;42.122;24.746;2024-02-23T10:23:43;99380.78;;;21.28;41.04
2675;BME280;1347;42.122;24.746;2024-02-23T10:26:11;99381.78;;;21.85;40.47
2675;BME280;1347;42.122;24.746;2024-02-23T10:28:38;99375.56;;;21.43;40.42
2675;BME280;1347;42.122;24.746;2024-02-23T10:31:05;99367.53;;;21.33;40.71
2675;BME280;1347;42.122;24.746;2024-02-23T10:33:32;99367.03;;;21.97;40.47
2675;BME280;1347;42.122;24.746;2024-02-23T10:36:05;99365.38;;;23.00;39.61
2675;BME280;1347;42.122;24.746;2024-02-23T10:38:35;99366.00;;;23.35;37.34
2675;BME280;1347;42.122;24.746;2024-02-23T10:41:05;99356.22;;;23.30;37.32
2675;BME280;1347;42.122;24.746;2024-02-23T10:43:38;99358.50;;;23.54;37.62
2675;BME280;1347;42.122;24.746;2024-02-23T10:46:08;99359.53;;;23.47;36.91
2675;BME280;1347;42.122;24.746;2024-02-23T10:48:39;99354.69;;;23.88;36.08
2675;BME280;1347;42.122;24.746;2024-02-23T10:51:10;99352.13;;;23.53;35.81
2675;BME280;1347;42.122;24.746;2024-02-23T10:53:39;99341.47;;;23.39;37.04
2675;BME280;1347;42.122;24.746;2024-02-23T10:56:07;99338.25;;;23.09;36.92
2675;BME280;1347;42.122;24.746;2024-02-23T10:58:34;99323.94;;;23.07;37.63
2675;BME280;1347;42.122;24.746;2024-02-23T11:01:03;99319.91;;;23.08;37.45
2675;BME280;1347;42.122;24.746;2024-02-23T11:03:31;99320.91;;;21.46;40.08
2675;BME280;1347;42.122;24.746;2024-02-23T11:05:59;99314.16;;;20.80;40.93
2675;BME280;1347;42.122;24.746;2024-02-23T11:08:29;99313.25;;;20.70;41.36
2675;BME280;1347;42.122;24.746;2024-02-23T11:11:07;99312.16;;;20.80;41.37
2675;BME280;1347;42.122;24.746;2024-02-23T11:13:34;99309.94;;;20.75;41.95
2675;BME280;1347;42.122;24.746;2024-02-23T11:16:02;99291.78;;;21.09;41.01
2675;BME280;1347;42.122;24.746;2024-02-23T11:18:33;99296.38;;;21.41;40.81
2675;BME280;1347;42.122;24.746;2024-02-23T11:21:03;99299.47;;;21.55;39.50
2675;BME280;1347;42.122;24.746;2024-02-23T11:23:41;99296.94;;;21.36;40.20
2675;BME280;1347;42.122;24.746;2024-02-23T11:26:09;99289.13;;;21.43;40.39
2675;BME280;1347;42.122;24.746;2024-02-23T11:28:43;99286.47;;;21.74;40.08
2675;BME280;1347;42.122;24.746;2024-02-23T11:31:12;99287.75;;;21.60;39.85
2675;BME280;1347;42.122;24.746;2024-02-23T11:33:39;99282.06;;;21.64;39.77
2675;BME280;1347;42.122;24.746;2024-02-23T11:36:07;99283.38;;;21.59;39.94
2675;BME280;1347;42.122;24.746;2024-02-23T11:38:34;99288.00;;;21.15;39.95
2675;BME280;1347;42.122;24.746;2024-02-23T11:41:02;99275.06;;;20.83;41.04
2675;BME280;1347;42.122;24.746;2024-02-23T11:43:30;99278.06;;;20.89;40.32
2675;BME280;1347;42.122;24.746;2024-02-23T11:45:59;99274.81;;;20.24;41.65
2675;BME280;1347;42.122;24.746;2024-02-23T11:48:26;99276.09;;;20.35;42.35
2675;BME280;1347;42.122;24.746;2024-02-23T11:50:53;99275.19;;;20.38;42.25
2675;BME280;1347;42.122;24.746;2024-02-23T11:53:20;99265.63;;;20.39;41.62
2675;BME280;1347;42.122;24.746;2024-02-23T11:55:48;99262.56;;;20.21;42.27
2675;BME280;1347;42.122;24.746;2024-02-23T11:58:17;99258.69;;;20.31;43.17
2675;BME280;1347;42.122;24.746;2024-02-23T12:00:44;99270.03;;;20.91;41.72
2675;BME280;1347;42.122;24.746;2024-02-23T12:03:12;99259.19;;;21.56;40.05
2675;BME280;1347;42.122;24.746;2024-02-23T12:05:40;99255.47;;;21.72;39.08
2675;BME280;1347;42.122;24.746;2024-02-23T12:08:07;99252.84;;;21.56;38.54
2675;BME280;1347;42.122;24.746;2024-02-23T12:10:34;99255.63;;;21.90;38.58
2675;BME280;1347;42.122;24.746;2024-02-23T12:13:02;99246.63;;;21.39;38.98
2675;BME280;1347;42.122;24.746;2024-02-23T12:15:30;99250.75;;;21.47;39.44
2675;BME280;1347;42.122;24.746;2024-02-23T12:17:58;99247.22;;;21.21;39.80
2675;BME280;1347;42.122;24.746;2024-02-23T12:20:26;99246.75;;;21.23;39.37
2675;BME280;1347;42.122;24.746;2024-02-23T12:22:55;99230.91;;;21.33;39.40
2675;BME280;1347;42.122;24.746;2024-02-23T12:25:22;99230.38;;;21.25;39.24
2675;BME280;1347;42.122;24.746;2024-02-23T12:27:54;99243.50;;;21.12;40.04
2675;BME280;1347;42.122;24.746;2024-02-23T12:30:21;99235.47;;;21.39;39.11
2675;BME280;1347;42.122;24.746;2024-02-23T12:32:50;99230.09;;;21.57;38.15
2675;BME280;1347;42.122;24.746;2024-02-23T12:35:17;99219.75;;;22.01;37.61
2675;BME280;1347;42.122;24.746;2024-02-23T12:37:47;99220.38;;;22.49;37.37
2675;BME280;1347;42.122;24.746;2024-02-23T12:40:15;99214.50;;;23.36;36.62
2675;BME280;1347;42.122;24.746;2024-02-23T12:42:41;99211.25;;;23.47;36.44
2675;BME280;1347;42.122;24.746;2024-02-23T12:45:09;99211.69;;;23.27;35.85
2675;BME280;1347;42.122;24.746;2024-02-23T12:47:36;99209.88;;;22.93;36.45
2675;BME280;1347;42.122;24.746;2024-02-23T12:50:07;99210.47;;;23.46;36.21
2675;BME280;1347;42.122;24.746;2024-02-23T12:52:35;99203.81;;;23.53;35.80
2675;BME280;1347;42.122;24.746;2024-02-23T12:55:02;99200.88;;;23.57;35.56
2675;BME280;1347;42.122;24.746;2024-02-23T12:57:29;99197.28;;;24.11;35.23
2675;BME280;1347;42.122;24.746;2024-02-23T12:59:56;99201.16;;;24.13;35.10
2675;BME280;1347;42.122;24.746;2024-02-23T13:02:24;99187.34;;;23.92;35.31
2675;BME280;1347;42.122;24.746;2024-02-23T13:04:51;99185.09;;;23.13;36.77
2675;BME280;1347;42.122;24.746;2024-02-23T13:07:19;99185.59;;;22.81;37.59
2675;BME280;1347;42.122;24.746;2024-02-23T13:09:46;99185.88;;;22.43;38.35
2675;BME280;1347;42.122;24.746;2024-02-23T13:12:13;99193.13;;;22.62;38.66
2675;BME280;1347;42.122;24.746;2024-02-23T13:14:40;99192.84;;;22.69;38.36